Sharon, ND

6:50 PM CDT on April 21, 2015 (GMT -0500)
Larimore | | Change Station
CLOSE
Current Station
Personal Weather Station
Location: Larimore, ND
Elevation: 1125 ft
Nearby Weather Stations
Active Advisory: Wind Advisory

Elev 1125 ft 47.91 °N, 97.63 °W | Updated 10 minutes ago

Overcast
Overcast
43.2 °F
Feels Like 39 °F
N
7.4
Wind Variable Wind from SSW

Today
High -- | Low -- °F
--% Chance of Precip.
Yesterday
High -- | Low -- °F
Precip. -- in
6:32 AM 8:29 PM
Waxing Crescent, 13% visible
Pressure 29.91 in
Visibility 10.0 miles
Clouds Few 5000 ft
Windchill 39 °F
Dew Point 20 °F
Humidity 40%
Rainfall 0.00 in
Snow Depth Not available.
UV 2 out of 12
Pollen 9.00 out of 12
Air Quality Not available.
Flu Activity Regional
METAR KRDR 212258Z AUTO 36022G29KT 10SM FEW050 06/M07 A2987 RMK AO2 PK WND 34033/37 SLP129 T00631066

More Conditions Fewer Conditions

Pressure 29.91 in
Visibility 10.0 miles
Clouds Few 5000 ft
Windchill 39 °F
Dew Point 20 °F
Humidity 40%
Rainfall 0.00 in
Snow Depth Not available.
UV 2 out of 12
Pollen 9.00 out of 12
Air Quality Not available.
Flu Activity Regional
METAR KRDR 212258Z AUTO 36022G29KT 10SM FEW050 06/M07 A2987 RMK AO2 PK WND 34033/37 SLP129 T00631066

More Conditions Fewer Conditions

10-Day Weather Forecast

Almanac

Astronomy

Apr. 21, 2015 Rise Set
Actual Time
Civil Twilight
Nautical Twilight
Astronomical Twilight
Moon
Length of Visible Light
Length of Day
Tomorrow will be .
, % of the Moon is Illuminated

Today's Extremes

State Highs State Lows

Community

WunderPhotos

Upload Photos

1,815,583 photos uploaded!

WunderBlogs® & News

Nearby

Air Quality

  Air Quality AQ Index Pollutant
Not available.

Snow Depth

Station Depth Elevation

Earthquake Activity

City Distance Mag. Time & Date
Minimum magnitude displayed is 2.5.

Coastal Water Temperatures

Place Temperature

Stations

Nearby Weather Stations

Station Location Temp. Windchill Dew Point Humidity Wind Precip. Elev Updated Type
                   
Wind Advisory
Statement as of 3:10 PM CDT on April 21, 2015

... Wind Advisory remains in effect until 7 PM CDT this evening...

* timing... until 7 PM CDT

* winds... 25 to 35 mph with gusts to 45 mph

* impacts... waves of 4 to 6 feet may be generated in the Devils
Lake basin and result in roadbed erosion in susceptible areas.

Precautionary/preparedness actions...

A Wind Advisory means that sustained winds of 30 mph or frequent
gusts to 45 mph are expected. Winds this strong can make driving
difficult... especially for high profile vehicles. Use extra
caution.